Time;durP1;ratioP1;P1;durP2;ratioP2;P2;SDS_P1;SDS_P2;PMS_P1;PMS_P2;Temp;Humidity;BMP_temperature;BMP_pressure;BME280_temperature;BME280_humidity;BME280_pressure;Samples;Min_cycle;Max_cycle;Signal;HPM_P1;HPM_P2
2021/08/18 00:00:40;;;;;;;31.15;13.77;;;25.30;69.80;;;;;;4952522;29;20047;-87
2021/08/18 00:03:15;;;;;;;22.45;12.30;;;25.30;69.90;;;;;;4937227;29;20046;-87
2021/08/18 00:05:49;;;;;;;21.40;12.15;;;25.30;70.00;;;;;;4928048;29;20040;-87
2021/08/18 00:08:18;;;;;;;23.27;12.55;;;25.30;70.10;;;;;;4918722;29;20118;-88
2021/08/18 00:10:56;;;;;;;26.45;12.35;;;25.20;70.00;;;;;;4920934;29;20051;-87
2021/08/18 00:13:41;;;;;;;;;;;;;;;;;;;;;
2021/08/18 00:16:25;;;;;;;23.42;12.60;;;25.10;70.30;;;;;;4935198;29;20044;-88
2021/08/18 00:19:07;;;;;;;24.42;12.45;;;25.10;70.30;;;;;;4935466;29;20046;-87
2021/08/18 00:21:36;;;;;;;22.80;13.07;;;25.10;70.60;;;;;;4917955;29;20518;-88
2021/08/18 00:24:02;;;;;;;24.00;13.55;;;25.00;70.60;;;;;;4952641;28;20097;-87
2021/08/18 00:26:28;;;;;;;25.45;12.80;;;25.00;70.60;;;;;;4939953;28;20458;-90
2021/08/18 00:29:00;;;;;;;24.02;12.38;;;25.10;70.60;;;;;;4957294;28;20046;-95
2021/08/18 00:31:27;;;;;;;22.02;12.80;;;25.10;70.50;;;;;;4959595;28;20085;-92
2021/08/18 00:33:53;;;;;;;25.02;12.88;;;25.00;70.40;;;;;;4943392;28;20038;-90
2021/08/18 00:36:19;;;;;;;26.92;13.27;;;25.00;70.50;;;;;;4943127;28;20060;-91
2021/08/18 00:38:45;;;;;;;26.20;13.82;;;25.00;70.50;;;;;;4918256;29;20369;-91
2021/08/18 00:41:11;;;;;;;22.10;13.30;;;24.90;70.60;;;;;;4918380;29;20032;-94
2021/08/18 00:43:37;;;;;;;26.55;12.75;;;25.00;70.60;;;;;;4918187;29;20092;-93
2021/08/18 00:46:04;;;;;;;23.40;12.60;;;24.90;70.80;;;;;;4917987;29;20036;-91
2021/08/18 00:48:30;;;;;;;23.17;13.18;;;24.90;70.80;;;;;;4917616;29;20471;-91
2021/08/18 00:50:56;;;;;;;25.95;13.13;;;24.90;70.80;;;;;;4917607;29;20134;-92
2021/08/18 00:53:22;;;;;;;26.55;13.52;;;24.90;70.80;;;;;;4917633;29;20046;-92
2021/08/18 00:55:48;;;;;;;24.08;12.70;;;24.90;70.90;;;;;;4917587;29;20036;-88
2021/08/18 00:58:14;;;;;;;23.58;12.82;;;24.90;71.10;;;;;;4920887;29;20043;-90
2021/08/18 01:00:40;;;;;;;25.38;13.55;;;24.80;71.10;;;;;;4923315;29;20032;-90
2021/08/18 01:03:05;;;;;;;21.58;12.60;;;24.80;71.20;;;;;;4920776;29;20040;-91
2021/08/18 01:05:32;;;;;;;20.50;12.45;;;24.80;71.80;;;;;;4919813;29;20076;-92
2021/08/18 01:08:01;;;;;;;22.60;12.60;;;24.90;71.30;;;;;;4918783;29;20050;-91
2021/08/18 01:10:34;;;;;;;25.48;13.35;;;24.90;71.20;;;;;;4917928;29;20427;-92
2021/08/18 01:13:03;;;;;;;21.73;12.75;;;24.90;71.00;;;;;;4917319;29;20139;-90
2021/08/18 01:15:30;;;;;;;24.38;12.55;;;24.90;71.00;;;;;;4926285;29;20574;-89
2021/08/18 01:18:03;;;;;;;27.67;13.07;;;24.90;71.00;;;;;;4935286;29;20472;-90
2021/08/18 01:23:44;;;;;;;27.08;13.63;;;24.90;71.20;;;;;;4936245;29;20558;-88
2021/08/18 01:26:10;;;;;;;20.05;12.32;;;24.80;71.10;;;;;;4952140;29;20040;-88
2021/08/18 01:28:38;;;;;;;25.30;13.32;;;24.80;71.50;;;;;;4941346;29;20039;-88
2021/08/18 01:31:04;;;;;;;23.63;12.73;;;24.70;71.60;;;;;;4935923;29;20106;-88
2021/08/18 01:33:40;;;;;;;25.83;13.50;;;24.70;71.60;;;;;;4927343;29;20033;-90
2021/08/18 01:36:09;;;;;;;23.92;13.10;;;24.60;71.70;;;;;;4927984;29;20078;-89
2021/08/18 01:38:40;;;;;;;23.63;13.32;;;24.70;72.50;;;;;;4939052;29;20541;-90
2021/08/18 01:44:12;;;;;;;25.73;12.68;;;24.60;72.00;;;;;;4953819;28;20498;-96
2021/08/18 01:46:38;;;;;;;24.40;14.18;;;24.60;72.10;;;;;;4966036;28;20043;-90
2021/08/18 01:49:04;;;;;;;27.48;13.52;;;24.60;72.20;;;;;;4948024;29;20070;-93
2021/08/18 01:51:30;;;;;;;31.05;13.68;;;24.60;72.10;;;;;;5030493;23;20061;-96
2021/08/18 01:56:47;;;;;;;26.10;13.60;;;24.60;72.20;;;;;;4975373;28;20061;-92
2021/08/18 01:59:13;;;;;;;22.90;13.52;;;24.60;72.30;;;;;;4941089;28;20030;-92
2021/08/18 02:01:39;;;;;;;24.65;13.98;;;24.50;72.30;;;;;;4973934;28;20510;-90
2021/08/18 02:04:05;;;;;;;24.90;13.77;;;24.50;72.30;;;;;;4941824;28;20548;-90
2021/08/18 02:06:32;;;;;;;29.15;14.30;;;24.50;72.40;;;;;;4974050;28;20116;-90
2021/08/18 02:08:58;;;;;;;21.23;13.63;;;24.40;72.60;;;;;;4958729;28;20035;-90
2021/08/18 02:11:24;;;;;;;26.98;14.35;;;24.40;72.60;;;;;;4974827;28;20121;-90
2021/08/18 02:13:51;;;;;;;23.60;13.25;;;24.40;72.80;;;;;;4974693;28;20074;-89
2021/08/18 02:16:17;;;;;;;26.85;13.57;;;24.40;72.80;;;;;;4973202;28;20042;-86
2021/08/18 02:18:42;;;;;;;24.42;14.05;;;24.40;72.70;;;;;;4975801;28;20039;-86
2021/08/18 02:21:08;;;;;;;25.48;14.75;;;24.40;72.70;;;;;;4975733;28;20118;-86
2021/08/18 02:23:34;;;;;;;27.85;14.48;;;24.30;72.90;;;;;;4957650;28;20035;-88
2021/08/18 02:26:00;;;;;;;22.67;13.70;;;24.30;72.80;;;;;;4973205;28;20045;-86
2021/08/18 02:28:26;;;;;;;23.15;13.00;;;24.40;72.70;;;;;;4957343;28;20183;-86
2021/08/18 02:30:52;;;;;;;27.48;14.07;;;24.30;72.80;;;;;;4957078;28;20038;-86
2021/08/18 02:33:18;;;;;;;22.88;13.77;;;24.30;72.80;;;;;;4959118;28;20486;-87
2021/08/18 02:35:44;;;;;;;27.73;14.00;;;24.30;72.80;;;;;;4959768;28;20034;-85
2021/08/18 02:38:10;;;;;;;31.38;13.77;;;24.30;72.90;;;;;;4977500;28;20514;-87
2021/08/18 02:40:38;;;;;;;23.42;14.20;;;24.30;72.90;;;;;;4960866;28;20035;-88
2021/08/18 02:43:04;;;;;;;21.20;13.68;;;24.30;72.80;;;;;;4976857;28;20074;-86
2021/08/18 02:45:31;;;;;;;27.20;13.02;;;24.30;72.70;;;;;;4973161;28;20045;-85
2021/08/18 02:47:57;;;;;;;23.73;13.10;;;24.30;72.90;;;;;;4957267;28;20037;-86
2021/08/18 02:50:25;;;;;;;23.15;13.80;;;24.30;72.80;;;;;;4960765;28;20529;-85
2021/08/18 03:07:36;;;;;;;23.13;13.70;;;24.30;72.80;;;;;;4949097;28;20047;-94
2021/08/18 03:10:04;;;;;;;23.85;13.48;;;24.30;72.80;;;;;;4954983;29;20051;-95
2021/08/18 03:16:56;;;;;;;;;;;;;;;;;;;;;
2021/08/18 03:23:41;;;;;;;;;;;;;;;;;;;;;
2021/08/18 03:26:20;;;;;;;;;;;;;;;;;;;;;
2021/08/18 03:28:58;;;;;;;26.20;14.18;;;24.40;72.50;;;;;;4963106;28;20035;-87
2021/08/18 03:31:24;;;;;;;26.38;13.48;;;24.40;72.60;;;;;;4954244;28;20391;-89
2021/08/18 03:33:49;;;;;;;29.23;13.77;;;24.30;72.80;;;;;;4969619;28;20130;-88
2021/08/18 03:36:15;;;;;;;27.65;13.50;;;24.30;72.90;;;;;;4954281;29;20088;-86
2021/08/18 03:38:41;;;;;;;29.25;13.70;;;24.30;73.00;;;;;;4954866;29;20038;-87
2021/08/18 03:41:07;;;;;;;29.42;13.85;;;24.30;73.00;;;;;;4954252;29;20123;-90
2021/08/18 03:43:36;;;;;;;24.40;13.40;;;24.40;73.00;;;;;;4954094;29;20035;-89
2021/08/18 03:46:02;;;;;;;22.73;13.60;;;24.30;73.00;;;;;;4969543;28;20071;-89
2021/08/18 03:48:28;;;;;;;23.45;13.95;;;24.20;73.10;;;;;;4954710;29;20171;-87
2021/08/18 03:50:54;;;;;;;29.95;14.50;;;24.30;73.20;;;;;;4969117;28;20122;-85
2021/08/18 03:53:23;;;;;;;27.58;14.90;;;24.30;73.10;;;;;;4952993;29;20506;-86
2021/08/18 03:55:49;;;;;;;30.63;14.30;;;24.30;73.10;;;;;;4968572;28;20055;-86
2021/08/18 03:58:17;;;;;;;28.55;14.25;;;24.40;73.00;;;;;;4969355;28;20031;-91
2021/08/18 04:00:44;;;;;;;29.63;15.57;;;24.30;73.10;;;;;;4968809;28;20042;-92
2021/08/18 04:03:40;;;;;;;30.48;14.32;;;24.40;73.10;;;;;;4969119;28;20418;-91
2021/08/18 04:06:24;;;;;;;29.58;14.88;;;24.40;73.10;;;;;;4956827;29;20508;-90
2021/08/18 04:08:50;;;;;;;25.98;14.57;;;24.40;72.90;;;;;;4977256;28;20085;-90
2021/08/18 04:11:17;;;;;;;30.25;14.70;;;24.40;72.90;;;;;;4966535;29;20038;-90
2021/08/18 04:13:45;;;;;;;27.92;14.70;;;24.40;73.00;;;;;;4959344;29;20028;-88
2021/08/18 04:16:11;;;;;;;34.03;15.65;;;24.40;73.00;;;;;;4940027;29;20528;-91
2021/08/18 04:18:37;;;;;;;31.17;15.88;;;24.40;72.90;;;;;;4953496;29;20118;-92
2021/08/18 04:21:03;;;;;;;30.70;16.13;;;24.50;72.90;;;;;;4937282;29;20110;-93
2021/08/18 04:23:29;;;;;;;29.95;15.57;;;24.50;72.90;;;;;;4937392;29;20179;-93
2021/08/18 04:26:03;;;;;;;27.25;14.60;;;24.60;72.90;;;;;;4937317;29;20133;-92
2021/08/18 04:28:29;;;;;;;28.92;14.70;;;24.70;72.70;;;;;;4937872;29;20040;-93
2021/08/18 04:30:55;;;;;;;26.20;14.60;;;24.90;72.50;;;;;;4969395;28;20138;-90
2021/08/18 04:33:21;;;;;;;31.75;13.90;;;25.10;72.10;;;;;;4953549;29;20035;-88
2021/08/18 04:35:47;;;;;;;29.58;14.65;;;25.40;71.60;;;;;;4937322;29;20083;-86
2021/08/18 04:38:24;;;;;;;23.25;14.13;;;25.60;70.80;;;;;;4937245;29;20451;-92
2021/08/18 04:40:50;;;;;;;27.63;14.00;;;25.90;71.20;;;;;;4953256;29;20035;-89
2021/08/18 04:43:16;;;;;;;25.08;14.48;;;26.10;69.90;;;;;;4937650;29;20487;-93
2021/08/18 04:46:15;;;;;;;;;;;;;;;;;;;;;
2021/08/18 04:49:13;;;;;;;26.90;12.77;;;26.50;68.80;;;;;;4929010;29;20052;-90
2021/08/18 04:51:49;;;;;;;32.92;14.93;;;26.80;68.50;;;;;;4938264;29;20122;-89
2021/08/18 04:59:10;;;;;;;;;;;;;;;;;;;;;
2021/08/18 05:01:38;;;;;;;26.13;14.00;;;27.50;66.50;;;;;;4965119;29;20387;-88
2021/08/18 05:04:07;;;;;;;25.48;13.38;;;27.60;66.10;;;;;;4957098;29;20039;-89
2021/08/18 05:06:37;;;;;;;31.20;14.45;;;27.80;65.80;;;;;;4955901;29;20070;-87
2021/08/18 05:09:03;;;;;;;36.45;14.27;;;27.80;65.30;;;;;;4955436;29;20031;-86
2021/08/18 05:11:47;;;;;;;24.95;13.60;;;27.90;64.80;;;;;;4972013;28;20043;-87
2021/08/18 05:14:15;;;;;;;27.42;13.35;;;28.00;64.40;;;;;;4955329;28;20039;-87
2021/08/18 05:16:49;;;;;;;25.38;14.02;;;28.10;64.60;;;;;;4954419;29;20039;-86
2021/08/18 05:19:16;;;;;;;24.05;13.18;;;28.30;64.50;;;;;;4955345;29;20130;-86
2021/08/18 05:21:42;;;;;;;27.70;13.73;;;28.40;64.20;;;;;;4939633;29;20039;-86
2021/08/18 05:24:08;;;;;;;25.80;13.68;;;28.50;64.10;;;;;;4955583;29;20435;-86
2021/08/18 05:26:34;;;;;;;24.27;13.13;;;28.70;63.70;;;;;;4955072;28;20046;-85
2021/08/18 05:29:00;;;;;;;26.45;14.10;;;28.70;63.20;;;;;;4956794;28;20027;-85
2021/08/18 05:31:26;;;;;;;29.10;13.20;;;28.90;63.20;;;;;;4958295;28;20035;-87
2021/08/18 05:33:52;;;;;;;27.45;13.38;;;29.00;63.00;;;;;;4975455;28;20039;-84
2021/08/18 05:36:19;;;;;;;18.98;11.52;;;29.10;62.40;;;;;;4974461;28;20041;-85
2021/08/18 05:38:45;;;;;;;19.58;12.30;;;29.20;62.60;;;;;;4958607;28;20034;-85
2021/08/18 05:41:11;;;;;;;24.08;12.02;;;29.30;62.80;;;;;;4958330;28;20038;-86
2021/08/18 05:43:38;;;;;;;22.63;11.43;;;29.40;62.90;;;;;;4974341;28;20046;-87
2021/08/18 05:46:44;;;;;;;20.88;11.95;;;29.50;62.60;;;;;;4945771;28;20078;-93
2021/08/18 05:49:49;;;;;;;;;;;;;;;;;;;;;
2021/08/18 05:52:35;;;;;;;28.10;12.38;;;29.70;61.00;;;;;;4982206;28;20445;-89
2021/08/18 05:55:02;;;;;;;24.27;12.15;;;29.80;60.80;;;;;;4975679;28;20058;-90
2021/08/18 05:57:29;;;;;;;19.75;11.23;;;29.90;61.60;;;;;;4974318;28;20031;-92
2021/08/18 05:59:55;;;;;;;21.88;11.65;;;29.90;61.40;;;;;;4947909;29;20489;-92
2021/08/18 06:02:22;;;;;;;24.00;11.40;;;30.00;61.30;;;;;;4939635;29;20142;-91
2021/08/18 06:04:48;;;;;;;24.48;11.95;;;30.10;60.50;;;;;;4938599;29;20396;-92
2021/08/18 06:07:14;;;;;;;26.90;11.77;;;30.10;60.10;;;;;;4968951;28;20058;-91
2021/08/18 06:09:40;;;;;;;21.98;10.85;;;30.20;60.50;;;;;;4959452;28;20082;-89
2021/08/18 06:12:06;;;;;;;25.73;11.18;;;30.30;60.70;;;;;;4938416;29;20131;-90
2021/08/18 06:14:33;;;;;;;23.25;10.77;;;30.40;60.80;;;;;;4938509;28;20031;-92
2021/08/18 06:16:59;;;;;;;19.13;11.32;;;30.50;60.70;;;;;;4940205;29;20046;-91
2021/08/18 06:19:25;;;;;;;21.52;11.27;;;30.50;60.60;;;;;;4948723;28;20497;-89
2021/08/18 06:21:51;;;;;;;28.90;11.95;;;30.60;61.00;;;;;;4972745;28;20038;-89
2021/08/18 06:24:40;;;;;;;22.70;11.20;;;30.60;60.10;;;;;;4970671;28;20061;-92
2021/08/18 06:27:08;;;;;;;26.23;12.35;;;30.60;60.10;;;;;;4938350;29;20130;-92
2021/08/18 06:29:34;;;;;;;27.45;11.10;;;30.70;59.10;;;;;;4945012;28;20413;-89
2021/08/18 06:32:04;;;;;;;24.95;11.73;;;30.70;59.40;;;;;;4974371;28;20174;-86
2021/08/18 06:34:30;;;;;;;20.13;10.68;;;30.80;59.70;;;;;;4990202;28;20185;-88
2021/08/18 06:37:01;;;;;;;23.15;10.48;;;30.80;59.60;;;;;;4977437;28;20038;-90
2021/08/18 06:39:32;;;;;;;19.73;10.68;;;30.80;59.50;;;;;;4977254;28;20034;-89
2021/08/18 06:41:59;;;;;;;21.45;10.90;;;30.90;59.00;;;;;;4962343;28;20038;-87
2021/08/18 06:44:26;;;;;;;20.88;10.48;;;30.90;58.90;;;;;;4992123;28;20033;-88
2021/08/18 06:46:53;;;;;;;28.05;11.32;;;30.90;58.90;;;;;;4979275;28;20038;-85
2021/08/18 06:49:19;;;;;;;19.83;10.57;;;31.00;59.10;;;;;;4960476;28;20575;-89
2021/08/18 06:51:45;;;;;;;22.00;10.95;;;30.90;58.60;;;;;;4976557;28;20038;-88
2021/08/18 06:54:11;;;;;;;18.52;9.88;;;30.90;59.10;;;;;;4976780;28;20088;-94
2021/08/18 06:56:37;;;;;;;22.92;10.75;;;31.00;59.20;;;;;;4958113;28;20043;-85
2021/08/18 06:59:03;;;;;;;18.40;9.60;;;30.90;59.10;;;;;;4973109;28;20038;-88
2021/08/18 07:01:29;;;;;;;17.20;10.25;;;31.00;59.10;;;;;;4959382;28;20042;-88
2021/08/18 07:03:55;;;;;;;19.48;9.98;;;31.00;59.00;;;;;;4958959;28;20414;-88
2021/08/18 07:06:22;;;;;;;13.15;9.30;;;31.00;59.00;;;;;;4966212;28;20148;-88
2021/08/18 07:08:48;;;;;;;21.30;10.05;;;30.90;59.10;;;;;;4992568;28;20077;-89
2021/08/18 07:11:14;;;;;;;17.05;9.73;;;30.90;59.20;;;;;;4959151;28;20031;-87
2021/08/18 07:13:40;;;;;;;17.27;9.73;;;30.90;59.20;;;;;;4966266;28;20070;-84
2021/08/18 07:16:08;;;;;;;17.35;9.68;;;30.90;59.10;;;;;;4957839;28;20514;-88
2021/08/18 07:18:34;;;;;;;16.02;9.20;;;30.90;58.40;;;;;;4958684;28;20066;-87
2021/08/18 07:21:00;;;;;;;19.48;9.15;;;30.90;58.80;;;;;;4959668;28;20066;-88
2021/08/18 07:23:26;;;;;;;15.57;9.35;;;30.90;58.90;;;;;;4973663;28;20522;-88
2021/08/18 07:25:52;;;;;;;17.02;9.23;;;30.80;58.70;;;;;;4956380;28;20130;-88
2021/08/18 07:28:20;;;;;;;13.88;8.75;;;30.80;58.50;;;;;;4958301;28;20031;-88
2021/08/18 07:30:46;;;;;;;13.65;8.50;;;30.90;58.50;;;;;;4972438;28;20537;-86
2021/08/18 07:33:12;;;;;;;11.52;8.57;;;30.90;59.00;;;;;;4956061;28;20684;-87
2021/08/18 07:35:38;;;;;;;18.08;9.57;;;30.90;58.30;;;;;;4973628;28;20027;-90
2021/08/18 07:38:04;;;;;;;16.45;8.05;;;30.90;58.40;;;;;;4957159;28;20027;-92
2021/08/18 07:40:30;;;;;;;15.20;8.68;;;30.80;58.50;;;;;;4956235;28;20113;-89
2021/08/18 07:42:56;;;;;;;12.93;8.70;;;30.70;58.00;;;;;;4956714;28;20489;-82
2021/08/18 07:45:23;;;;;;;18.55;8.38;;;30.70;58.20;;;;;;4973585;28;20050;-84
2021/08/18 07:47:49;;;;;;;13.02;8.40;;;30.60;58.10;;;;;;4956317;28;20053;-84
2021/08/18 07:50:15;;;;;;;17.08;8.60;;;30.60;58.20;;;;;;4956311;28;20030;-84
2021/08/18 07:52:41;;;;;;;16.95;9.15;;;30.50;58.00;;;;;;4973629;28;20039;-83
2021/08/18 07:55:10;;;;;;;16.02;9.48;;;30.50;57.90;;;;;;4955909;28;20046;-85
2021/08/18 07:57:36;;;;;;;12.55;8.25;;;30.30;58.00;;;;;;4973229;28;20081;-86
2021/08/18 08:00:06;;;;;;;17.63;8.63;;;30.30;58.30;;;;;;4961322;28;20117;-93
2021/08/18 08:03:04;;;;;;;17.23;9.27;;;30.20;58.20;;;;;;4977639;28;20038;-94
2021/08/18 08:05:30;;;;;;;19.00;8.88;;;30.20;58.70;;;;;;4967476;28;20038;-95
2021/08/18 08:07:59;;;;;;;15.02;9.45;;;30.10;58.80;;;;;;4974076;28;20065;-89
2021/08/18 08:10:25;;;;;;;14.38;8.40;;;30.00;59.10;;;;;;4955821;28;20078;-87
2021/08/18 08:12:51;;;;;;;15.20;8.57;;;30.00;59.20;;;;;;4968565;28;20063;-85
2021/08/18 08:15:19;;;;;;;13.00;8.35;;;30.00;59.20;;;;;;4949101;28;20035;-85
2021/08/18 08:17:45;;;;;;;14.80;8.73;;;30.00;59.40;;;;;;4974823;28;20039;-87
2021/08/18 08:20:12;;;;;;;16.95;9.02;;;29.90;59.70;;;;;;4954161;28;20123;-87
2021/08/18 08:22:38;;;;;;;14.82;8.90;;;29.80;59.80;;;;;;4938255;28;20157;-89
2021/08/18 08:25:06;;;;;;;16.15;9.05;;;29.70;58.90;;;;;;4973013;28;20039;-91
2021/08/18 08:27:32;;;;;;;18.15;9.23;;;29.80;59.60;;;;;;4987036;28;20066;-90
2021/08/18 08:29:58;;;;;;;15.98;9.00;;;29.70;59.40;;;;;;4954583;28;20556;-90
2021/08/18 08:32:24;;;;;;;18.60;9.35;;;29.70;59.60;;;;;;4973164;28;20034;-90
2021/08/18 08:34:50;;;;;;;16.42;9.15;;;29.70;59.80;;;;;;4973279;28;20074;-90
2021/08/18 08:37:18;;;;;;;16.27;9.05;;;29.70;60.00;;;;;;4973405;28;20069;-88
2021/08/18 08:39:44;;;;;;;15.93;8.48;;;29.70;60.00;;;;;;4955920;28;20062;-89
2021/08/18 08:42:13;;;;;;;14.43;8.10;;;29.70;60.00;;;;;;4970139;28;20059;-83
2021/08/18 08:44:39;;;;;;;16.77;9.35;;;29.70;59.90;;;;;;4953529;28;20038;-91
2021/08/18 08:47:08;;;;;;;17.38;9.20;;;29.70;60.20;;;;;;4953310;29;20039;-90
2021/08/18 08:49:34;;;;;;;19.88;9.15;;;29.70;60.40;;;;;;4953167;28;20031;-84
2021/08/18 08:52:00;;;;;;;21.48;9.90;;;29.70;60.50;;;;;;4968408;28;20035;-86
2021/08/18 08:54:26;;;;;;;16.20;9.45;;;29.60;60.20;;;;;;4974786;28;20498;-83
2021/08/18 08:56:53;;;;;;;14.73;8.88;;;29.60;60.80;;;;;;4976312;28;20062;-87
2021/08/18 08:59:18;;;;;;;14.43;8.10;;;29.60;61.10;;;;;;4974505;28;20485;-84
2021/08/18 09:02:08;;;;;;;20.02;8.52;;;29.60;61.30;;;;;;4974911;28;20039;-84
2021/08/18 09:04:36;;;;;;;20.77;9.50;;;29.60;61.40;;;;;;4960604;28;20035;-90
2021/08/18 09:07:05;;;;;;;19.00;9.30;;;29.60;61.20;;;;;;4967505;28;20039;-86
2021/08/18 09:09:32;;;;;;;24.17;9.32;;;29.60;60.20;;;;;;4967902;28;20178;-86
2021/08/18 09:12:15;;;;;;;15.65;8.63;;;29.60;61.10;;;;;;4959238;28;20092;-87
2021/08/18 09:14:42;;;;;;;20.00;9.40;;;29.60;60.00;;;;;;4976464;28;20117;-94
2021/08/18 09:17:33;;;;;;;15.60;9.20;;;29.60;59.80;;;;;;4976036;28;20548;-91
2021/08/18 09:20:05;;;;;;;15.93;8.15;;;29.60;59.40;;;;;;4939688;29;20127;-90
2021/08/18 09:22:35;;;;;;;15.68;8.45;;;29.60;59.30;;;;;;4943611;28;20038;-91
2021/08/18 09:25:17;;;;;;;12.73;8.13;;;29.50;59.10;;;;;;4991176;28;20035;-90
2021/08/18 09:27:46;;;;;;;14.57;7.72;;;29.50;59.00;;;;;;4990435;28;20448;-89
2021/08/18 09:30:36;;;;;;;18.50;8.13;;;29.50;59.00;;;;;;4956648;29;20505;-90
2021/08/18 09:33:09;;;;;;;10.63;7.15;;;29.50;59.10;;;;;;4966705;28;20247;-90
2021/08/18 09:35:35;;;;;;;13.75;8.60;;;29.50;59.00;;;;;;4955516;29;20054;-90
2021/08/18 09:38:13;;;;;;;14.80;8.00;;;29.50;59.00;;;;;;4955242;29;20027;-85
2021/08/18 09:40:45;;;;;;;13.60;7.88;;;29.50;59.00;;;;;;4961548;28;20050;-86
2021/08/18 09:43:16;;;;;;;12.63;8.23;;;29.50;59.00;;;;;;4974129;28;20109;-84
2021/08/18 09:46:02;;;;;;;15.02;7.63;;;29.40;58.80;;;;;;4975512;28;20046;-85
2021/08/18 09:48:30;;;;;;;18.17;8.70;;;29.40;58.90;;;;;;4958201;28;20050;-87
2021/08/18 09:50:58;;;;;;;16.02;8.13;;;29.50;58.70;;;;;;4974211;28;20130;-87
2021/08/18 09:53:39;;;;;;;13.00;8.00;;;29.50;58.70;;;;;;4972194;28;20054;-86
2021/08/18 09:56:08;;;;;;;13.55;8.13;;;29.50;58.80;;;;;;4956097;29;20051;-87
2021/08/18 09:58:36;;;;;;;16.42;7.80;;;29.50;58.90;;;;;;4959482;28;20031;-88
2021/08/18 10:01:13;;;;;;;14.60;7.68;;;29.50;58.70;;;;;;4957707;28;20039;-92
2021/08/18 10:03:42;;;;;;;14.75;8.05;;;29.50;59.00;;;;;;4939926;29;20055;-91
2021/08/18 10:06:09;;;;;;;16.35;8.50;;;29.50;58.90;;;;;;4939280;29;20035;-86
2021/08/18 10:08:38;;;;;;;16.65;8.20;;;29.50;59.10;;;;;;4938697;29;20042;-88
2021/08/18 10:11:05;;;;;;;19.35;8.82;;;29.50;59.00;;;;;;4938733;29;20082;-89
2021/08/18 10:13:31;;;;;;;16.88;8.48;;;29.40;59.00;;;;;;4938800;29;20071;-94
2021/08/18 10:15:57;;;;;;;13.85;8.27;;;29.40;58.90;;;;;;4962927;28;20074;-92
2021/08/18 10:18:33;;;;;;;16.23;8.75;;;29.40;59.60;;;;;;4938980;29;20123;-93
2021/08/18 10:21:03;;;;;;;12.65;8.43;;;29.40;59.40;;;;;;4939676;28;20039;-91
2021/08/18 10:23:54;;;;;;;16.40;7.90;;;29.40;59.20;;;;;;4975236;28;20043;-87
2021/08/18 10:26:39;;;;;;;13.32;8.57;;;29.40;59.30;;;;;;4958928;28;20046;-91
2021/08/18 10:29:16;;;;;;;14.27;8.60;;;29.40;59.30;;;;;;4941971;28;20062;-94
2021/08/18 10:31:48;;;;;;;12.40;8.98;;;29.40;59.70;;;;;;4942137;28;20555;-95
2021/08/18 10:34:26;;;;;;;17.15;8.77;;;29.30;59.70;;;;;;4941941;28;20081;-94
2021/08/18 10:36:56;;;;;;;14.55;8.98;;;29.30;60.00;;;;;;4974391;28;20038;-95
2021/08/18 10:39:25;;;;;;;13.63;8.98;;;29.30;60.50;;;;;;4958214;28;20062;-96
2021/08/18 10:42:01;;;;;;;13.88;9.15;;;29.40;60.40;;;;;;4960751;28;20083;-95
2021/08/18 10:44:34;;;;;;;19.48;8.93;;;29.40;60.30;;;;;;4980428;28;20039;-89
2021/08/18 10:47:28;;;;;;;18.40;9.43;;;29.40;60.40;;;;;;4945152;28;20425;-87
2021/08/18 10:50:12;;;;;;;14.30;9.00;;;29.40;60.60;;;;;;4953696;29;20039;-89
2021/08/18 10:52:41;;;;;;;17.85;9.60;;;29.40;60.90;;;;;;4966545;28;20035;-90
2021/08/18 10:55:12;;;;;;;14.13;9.45;;;29.40;61.10;;;;;;4977614;28;20047;-87
2021/08/18 10:57:48;;;;;;;18.02;9.63;;;29.40;60.70;;;;;;4975491;28;20039;-85
2021/08/18 11:00:32;;;;;;;12.57;9.23;;;29.40;60.90;;;;;;4990826;28;20038;-94
2021/08/18 11:03:14;;;;;;;13.82;9.38;;;29.40;60.40;;;;;;4975747;28;20062;-88
2021/08/18 11:05:41;;;;;;;18.08;8.90;;;29.40;60.60;;;;;;4959249;28;20046;-91
2021/08/18 11:08:11;;;;;;;12.60;9.30;;;29.40;60.40;;;;;;4954921;29;20043;-89
2021/08/18 11:10:40;;;;;;;13.88;8.88;;;29.20;60.90;;;;;;4964598;28;20414;-87
2021/08/18 11:13:07;;;;;;;16.20;9.23;;;29.30;60.60;;;;;;4940396;28;20035;-86
2021/08/18 11:15:33;;;;;;;15.27;8.90;;;29.40;60.60;;;;;;4972579;28;20053;-82
2021/08/18 11:17:59;;;;;;;13.02;8.70;;;29.40;59.40;;;;;;4973292;28;20030;-84
2021/08/18 11:20:28;;;;;;;13.20;8.82;;;29.40;59.70;;;;;;4973606;28;20049;-83
2021/08/18 11:23:06;;;;;;;12.13;9.15;;;29.40;60.10;;;;;;4971726;28;20038;-85
2021/08/18 11:25:44;;;;;;;11.50;8.38;;;29.50;60.40;;;;;;4973597;28;20074;-82
2021/08/18 11:28:24;;;;;;;15.25;9.50;;;29.50;60.60;;;;;;4974158;28;20129;-86
2021/08/18 11:30:58;;;;;;;11.65;9.05;;;29.50;60.30;;;;;;4956725;28;20409;-85
2021/08/18 11:33:25;;;;;;;13.38;8.93;;;29.50;60.20;;;;;;4960354;28;20513;-87
2021/08/18 11:35:52;;;;;;;13.52;8.82;;;29.50;60.50;;;;;;4964245;28;20030;-84
2021/08/18 11:38:18;;;;;;;11.60;8.85;;;29.50;60.90;;;;;;4962990;28;20035;-87
2021/08/18 11:40:48;;;;;;;13.50;8.30;;;29.50;61.70;;;;;;4938007;28;20098;-83
2021/08/18 11:43:13;;;;;;;16.20;9.70;;;29.50;61.40;;;;;;4972595;28;20125;-86
2021/08/18 11:45:39;;;;;;;13.52;9.77;;;29.50;61.10;;;;;;4988442;28;20121;-85
2021/08/18 11:48:07;;;;;;;15.32;8.43;;;29.50;60.90;;;;;;4972235;28;20130;-91
2021/08/18 11:50:34;;;;;;;13.05;9.48;;;29.50;61.00;;;;;;4959864;28;20533;-89
2021/08/18 11:53:02;;;;;;;12.80;8.90;;;29.50;60.70;;;;;;4951680;28;20445;-88
2021/08/18 11:55:29;;;;;;;16.88;9.43;;;29.60;60.70;;;;;;4965580;28;20043;-82
2021/08/18 11:58:07;;;;;;;11.10;8.75;;;29.60;60.60;;;;;;4957790;28;20036;-81
2021/08/18 12:00:35;;;;;;;12.55;9.23;;;29.60;60.90;;;;;;4946510;29;20035;-82
2021/08/18 12:03:02;;;;;;;13.23;9.00;;;29.60;61.20;;;;;;4965454;28;20026;-85
2021/08/18 12:05:33;;;;;;;11.77;8.82;;;29.60;61.30;;;;;;4971114;28;20039;-83
2021/08/18 12:08:12;;;;;;;12.68;9.02;;;29.60;61.40;;;;;;4956525;28;20059;-86
2021/08/18 12:10:40;;;;;;;10.27;8.90;;;29.60;61.30;;;;;;4964715;28;20114;-86
2021/08/18 12:13:11;;;;;;;14.30;9.32;;;29.70;60.90;;;;;;4968824;28;20090;-84
2021/08/18 12:15:49;;;;;;;12.80;9.70;;;29.60;60.50;;;;;;4965057;28;20508;-88
2021/08/18 12:18:33;;;;;;;15.93;8.40;;;29.60;60.00;;;;;;4960844;28;20129;-82
2021/08/18 12:21:18;;;;;;;12.40;8.60;;;29.60;60.30;;;;;;4961405;28;20093;-82
2021/08/18 12:23:46;;;;;;;;;;;29.60;60.40;;;;;;4988610;28;20043;-81
2021/08/18 12:26:38;;;;;;;15.15;9.00;;;29.60;60.10;;;;;;4970608;28;19914;-83
2021/08/18 12:29:06;;;;;;;12.35;8.73;;;29.60;60.30;;;;;;4930964;28;20042;-89
2021/08/18 12:31:54;;;;;;;15.27;9.02;;;29.70;61.10;;;;;;4951521;28;20070;-94
2021/08/18 12:35:09;;;;;;;14.48;8.77;;;29.60;60.20;;;;;;4985914;28;20089;-88
2021/08/18 12:37:39;;;;;;;13.23;8.43;;;29.60;60.00;;;;;;4898287;29;20040;-86
2021/08/18 12:40:24;;;;;;;10.02;8.05;;;29.60;60.00;;;;;;4897815;29;20072;-86
2021/08/18 12:42:56;;;;;;;12.68;9.10;;;29.60;59.80;;;;;;4943163;28;20049;-89
2021/08/18 12:45:35;;;;;;;15.85;8.27;;;29.60;59.50;;;;;;4926733;29;20464;-87
2021/08/18 12:48:02;;;;;;;10.35;8.35;;;29.70;59.70;;;;;;4979851;28;20079;-86
2021/08/18 12:50:30;;;;;;;10.32;7.40;;;29.70;60.10;;;;;;4955427;28;20462;-87
2021/08/18 12:52:57;;;;;;;10.30;7.53;;;29.70;59.80;;;;;;4988692;28;20039;-83
2021/08/18 12:55:24;;;;;;;14.45;8.20;;;29.70;59.80;;;;;;4974731;28;20081;-88
2021/08/18 12:57:50;;;;;;;10.27;7.50;;;29.70;59.60;;;;;;4975597;28;20092;-82
2021/08/18 13:00:16;;;;;;;9.60;6.60;;;29.60;59.40;;;;;;4988311;28;20038;-83
2021/08/18 13:02:43;;;;;;;11.02;6.90;;;29.60;58.40;;;;;;4955669;29;20031;-81
2021/08/18 13:05:10;;;;;;;10.43;7.63;;;29.60;58.40;;;;;;4939786;29;20052;-82
2021/08/18 13:07:36;;;;;;;9.50;7.53;;;29.70;58.40;;;;;;4941006;28;20035;-81
2021/08/18 13:10:04;;;;;;;10.18;7.63;;;29.70;58.40;;;;;;4972349;28;20438;-82
2021/08/18 13:12:30;;;;;;;11.10;7.32;;;29.70;58.50;;;;;;4974683;28;20043;-85
2021/08/18 13:14:57;;;;;;;12.38;7.13;;;29.70;58.90;;;;;;4953141;28;20073;-81
2021/08/18 13:17:24;;;;;;;11.48;6.82;;;29.70;59.30;;;;;;4967590;28;20050;-80
2021/08/18 13:19:50;;;;;;;8.40;6.65;;;29.70;59.10;;;;;;4957603;28;20653;-81
2021/08/18 13:22:16;;;;;;;9.38;6.70;;;29.70;59.20;;;;;;4965826;28;20023;-87
2021/08/18 13:24:42;;;;;;;8.77;7.50;;;29.70;59.20;;;;;;4958482;28;20417;-84
2021/08/18 13:27:09;;;;;;;10.88;7.57;;;29.60;59.20;;;;;;4978056;28;20045;-85
2021/08/18 13:29:35;;;;;;;12.45;8.05;;;29.60;59.50;;;;;;4978248;28;20049;-90
2021/08/18 13:32:01;;;;;;;11.13;7.85;;;29.60;59.60;;;;;;4977667;28;20409;-87